createdAt,value
2022-08-14T00:01:32.386Z,17.14
2022-08-14T00:03:59.506Z,17.11
2022-08-14T00:06:29.097Z,17.06
2022-08-14T00:08:59.084Z,17.01
2022-08-14T00:11:28.775Z,17.00
2022-08-14T00:14:01.586Z,16.94
2022-08-14T00:16:41.106Z,16.93
2022-08-14T00:19:19.057Z,16.90
2022-08-14T00:21:50.905Z,16.83
2022-08-14T00:24:28.454Z,16.79
2022-08-14T00:26:56.264Z,16.76
2022-08-14T00:29:25.486Z,16.73
2022-08-14T00:31:56.003Z,16.70
2022-08-14T00:34:36.507Z,16.63
2022-08-14T00:37:10.371Z,16.59
2022-08-14T00:39:37.334Z,16.60
2022-08-14T00:42:05.395Z,16.56
2022-08-14T00:44:33.284Z,16.48
2022-08-14T00:47:10.805Z,16.41
2022-08-14T00:49:43.145Z,16.37
2022-08-14T00:52:18.186Z,16.32
2022-08-14T00:54:47.132Z,16.30
2022-08-14T00:57:14.095Z,16.23
2022-08-14T00:59:41.380Z,16.09
2022-08-14T01:02:10.694Z,15.99
2022-08-14T01:04:54.462Z,15.94
2022-08-14T01:07:22.882Z,15.89
2022-08-14T01:09:55.276Z,15.88
2022-08-14T01:12:26.439Z,15.86
2022-08-14T01:14:55.473Z,15.72
2022-08-14T01:17:50.466Z,15.68
2022-08-14T01:20:39.941Z,15.70
2022-08-14T01:23:16.446Z,15.70
2022-08-14T01:25:48.346Z,15.67
2022-08-14T01:28:34.261Z,15.64
2022-08-14T01:31:02.335Z,15.49
2022-08-14T01:33:30.200Z,15.44
2022-08-14T01:36:04.831Z,15.36
2022-08-14T01:38:37.228Z,15.23
2022-08-14T01:41:15.133Z,15.27
2022-08-14T01:43:56.443Z,15.35
2022-08-14T01:46:25.223Z,15.39
2022-08-14T01:49:02.158Z,15.39
2022-08-14T01:51:30.036Z,15.39
2022-08-14T01:54:00.912Z,15.35
2022-08-14T01:56:39.177Z,15.32
2022-08-14T01:59:21.509Z,15.36
2022-08-14T02:01:58.942Z,15.36
2022-08-14T02:04:54.753Z,15.34
2022-08-14T02:07:20.562Z,15.33
2022-08-14T02:10:01.575Z,15.33
2022-08-14T02:12:29.385Z,15.34
2022-08-14T02:15:09.326Z,15.32
2022-08-14T02:17:36.198Z,15.33
2022-08-14T02:20:08.596Z,15.33
2022-08-14T02:22:36.048Z,15.32
2022-08-14T02:25:14.374Z,15.36
2022-08-14T02:28:23.307Z,15.38
2022-08-14T02:30:33.835Z,15.33
2022-08-14T02:33:01.661Z,15.23
2022-08-14T02:35:32.796Z,15.20
2022-08-14T02:38:00.107Z,15.12
2022-08-14T02:40:32.131Z,15.05
2022-08-14T02:43:02.758Z,14.99
2022-08-14T02:45:38.736Z,14.94
2022-08-14T02:49:01.562Z,14.79
2022-08-14T02:51:00.882Z,14.70
2022-08-14T02:53:29.465Z,14.79
2022-08-14T02:56:02.748Z,14.84
2022-08-14T02:58:31.610Z,14.88
2022-08-14T03:00:59.848Z,14.93
2022-08-14T03:03:31.837Z,14.95
2022-08-14T03:06:02.848Z,14.96
2022-08-14T03:08:32.192Z,14.93
2022-08-14T03:11:01.117Z,14.91
2022-08-14T03:13:29.597Z,14.88
2022-08-14T03:15:58.148Z,14.88
2022-08-14T03:18:30.563Z,14.83
2022-08-14T03:21:02.144Z,14.78
2022-08-14T03:23:38.120Z,14.66
2022-08-14T03:26:18.358Z,14.56
2022-08-14T03:28:56.804Z,14.44
2022-08-14T03:31:29.435Z,14.38
2022-08-14T03:34:00.141Z,14.43
2022-08-14T03:37:51.542Z,14.53
2022-08-14T03:39:22.654Z,14.58
2022-08-14T03:42:01.610Z,14.65
2022-08-14T03:45:26.133Z,14.62
2022-08-14T03:47:15.680Z,14.63
2022-08-14T03:49:44.020Z,14.61
2022-08-14T03:52:28.016Z,14.62
2022-08-14T03:55:00.274Z,14.59
2022-08-14T03:57:37.081Z,14.56
2022-08-14T04:00:27.626Z,14.58
2022-08-14T04:02:57.770Z,14.58
2022-08-14T04:05:25.463Z,14.61
2022-08-14T04:08:08.373Z,14.58
2022-08-14T04:10:38.757Z,14.58
2022-08-14T04:13:06.450Z,14.59
2022-08-14T04:15:55.843Z,14.59
2022-08-14T04:18:21.995Z,14.53
2022-08-14T04:20:54.741Z,14.50
2022-08-14T04:23:29.074Z,14.53
2022-08-14T04:26:00.752Z,14.51
2022-08-14T04:29:06.742Z,14.54
2022-08-14T04:31:15.417Z,14.51
2022-08-14T04:33:42.770Z,14.51
2022-08-14T04:36:15.942Z,14.51
2022-08-14T04:39:03.406Z,14.52
2022-08-14T04:41:49.205Z,14.52
2022-08-14T04:44:36.303Z,14.54
2022-08-14T04:47:23.684Z,14.55
2022-08-14T04:49:56.861Z,14.52
2022-08-14T04:52:24.826Z,14.55
2022-08-14T04:54:52.194Z,14.62
2022-08-14T04:57:21.284Z,14.69
2022-08-14T04:59:49.631Z,14.69
2022-08-14T05:02:17.640Z,14.77
2022-08-14T05:04:45.224Z,14.89
2022-08-14T05:07:46.862Z,15.00
2022-08-14T05:10:16.536Z,15.15
2022-08-14T05:13:14.381Z,15.26
2022-08-14T05:15:32.976Z,15.45
2022-08-14T05:18:17.045Z,15.59
2022-08-14T05:21:56.673Z,15.74
2022-08-14T05:23:41.901Z,15.99
2022-08-14T05:26:15.863Z,16.28
2022-08-14T05:28:46.043Z,16.53
2022-08-14T05:31:15.952Z,16.81
2022-08-14T05:33:56.875Z,17.05
2022-08-14T05:36:25.664Z,17.23
2022-08-14T05:38:54.057Z,17.36
2022-08-14T05:41:22.350Z,17.50
2022-08-14T05:43:50.945Z,17.62
2022-08-14T05:46:22.756Z,17.67
2022-08-14T05:48:51.693Z,17.79
2022-08-14T05:51:18.971Z,17.83
2022-08-14T05:54:01.357Z,17.95
2022-08-14T05:56:32.482Z,18.18
2022-08-14T05:59:00.681Z,18.31
2022-08-14T06:01:31.283Z,18.45
2022-08-14T06:03:58.626Z,18.56
2022-08-14T06:06:25.370Z,18.61
2022-08-14T06:08:52.930Z,18.63
2022-08-14T06:11:30.807Z,18.61
2022-08-14T06:13:58.695Z,18.67
2022-08-14T06:16:25.483Z,18.68
2022-08-14T06:18:53.266Z,18.74
2022-08-14T06:21:22.083Z,18.86
2022-08-14T06:23:49.454Z,19.13
2022-08-14T06:26:17.609Z,19.18
2022-08-14T06:28:51.989Z,19.08
2022-08-14T06:31:22.594Z,19.14
2022-08-14T06:35:02.281Z,19.11
2022-08-14T06:36:39.479Z,19.04
2022-08-14T06:39:08.013Z,19.08
2022-08-14T06:41:59.425Z,19.26
2022-08-14T06:44:30.554Z,19.60
2022-08-14T06:47:01.496Z,19.77
2022-08-14T06:49:28.145Z,20.08
2022-08-14T06:51:57.161Z,20.29
2022-08-14T06:54:23.843Z,20.28
2022-08-14T06:56:59.055Z,20.42
2022-08-14T06:59:26.261Z,20.76
2022-08-14T07:02:13.190Z,21.10
2022-08-14T07:04:59.121Z,20.94
2022-08-14T07:07:28.676Z,21.18
2022-08-14T07:09:55.703Z,20.94
2022-08-14T07:12:54.838Z,20.99
2022-08-14T07:15:09.628Z,21.06
2022-08-14T07:17:52.039Z,21.34
2022-08-14T07:20:20.541Z,21.50
2022-08-14T07:23:05.322Z,21.77
2022-08-14T07:25:37.786Z,21.80
2022-08-14T07:28:21.589Z,21.96
2022-08-14T07:30:51.201Z,22.06
2022-08-14T07:33:24.530Z,22.29
2022-08-14T07:35:59.335Z,22.36
2022-08-14T07:38:36.192Z,22.26
2022-08-14T07:41:11.601Z,22.27
2022-08-14T07:43:42.434Z,22.14
2022-08-14T07:46:09.158Z,22.44
2022-08-14T07:48:41.447Z,22.19
2022-08-14T07:51:10.693Z,22.22
2022-08-14T07:53:40.516Z,22.19
2022-08-14T07:56:09.072Z,22.10
2022-08-14T07:58:51.330Z,22.12
2022-08-14T08:01:19.610Z,22.50
2022-08-14T08:03:49.512Z,22.60
2022-08-14T08:06:17.466Z,22.66
2022-08-14T08:09:00.941Z,22.98
2022-08-14T08:11:34.856Z,22.96
2022-08-14T08:14:10.272Z,23.13
2022-08-14T08:16:38.372Z,23.17
2022-08-14T08:19:12.635Z,23.09
2022-08-14T08:21:43.792Z,23.08
2022-08-14T08:24:12.545Z,23.25
2022-08-14T08:26:45.623Z,23.39
2022-08-14T08:29:20.216Z,23.70
2022-08-14T08:31:52.579Z,23.74
2022-08-14T08:34:23.698Z,24.01
2022-08-14T08:36:51.631Z,24.25
2022-08-14T08:39:22.825Z,24.59
2022-08-14T08:41:53.644Z,24.58
2022-08-14T08:44:32.045Z,24.76
2022-08-14T08:47:05.655Z,25.12
2022-08-14T08:49:43.240Z,24.90
2022-08-14T08:52:30.995Z,24.96
2022-08-14T08:54:59.628Z,24.95
2022-08-14T08:57:33.420Z,24.99
2022-08-14T09:00:02.385Z,25.20
2022-08-14T09:02:29.503Z,25.19
2022-08-14T09:05:02.680Z,24.79
2022-08-14T09:07:30.615Z,24.80
2022-08-14T09:10:00.171Z,25.12
2022-08-14T09:12:32.146Z,25.30
2022-08-14T09:15:01.781Z,25.26
2022-08-14T09:17:28.585Z,25.44
2022-08-14T09:19:55.932Z,25.85
2022-08-14T09:22:35.138Z,26.34
2022-08-14T09:25:07.033Z,26.82
2022-08-14T09:27:36.419Z,26.60
2022-08-14T09:30:30.997Z,26.29
2022-08-14T09:33:00.574Z,26.28
2022-08-14T09:35:39.521Z,26.36
2022-08-14T09:38:25.895Z,26.53
2022-08-14T09:41:24.840Z,26.56
2022-08-14T09:43:57.396Z,26.46
2022-08-14T09:46:27.773Z,26.55
2022-08-14T09:49:05.281Z,26.77
2022-08-14T09:51:45.197Z,27.09
2022-08-14T09:54:23.279Z,27.57
2022-08-14T09:56:56.497Z,27.18
2022-08-14T09:59:25.534Z,26.81
2022-08-14T10:01:57.214Z,26.66
2022-08-14T10:04:33.799Z,26.74
2022-08-14T10:07:08.410Z,26.84
2022-08-14T10:09:59.927Z,26.83
2022-08-14T10:12:46.300Z,27.04
2022-08-14T10:15:23.824Z,27.34
2022-08-14T10:18:02.498Z,27.69
2022-08-14T10:20:40.466Z,27.32
2022-08-14T10:23:14.782Z,27.30
2022-08-14T10:25:53.111Z,27.42
2022-08-14T10:29:03.929Z,27.59
2022-08-14T10:31:25.713Z,27.62
2022-08-14T10:34:13.209Z,27.83
2022-08-14T10:36:47.789Z,27.95
2022-08-14T10:39:23.574Z,28.27
2022-08-14T10:42:01.657Z,28.30
2022-08-14T10:44:35.611Z,28.12
2022-08-14T10:47:40.162Z,28.33
2022-08-14T10:50:00.713Z,28.47
2022-08-14T10:52:35.274Z,29.03
2022-08-14T10:55:19.388Z,29.28
2022-08-14T10:57:53.548Z,29.16
2022-08-14T11:00:30.336Z,28.51
2022-08-14T11:03:11.056Z,29.04
2022-08-14T11:05:47.882Z,29.70
2022-08-14T11:08:16.235Z,29.80
2022-08-14T11:10:49.228Z,29.16
2022-08-14T11:13:25.588Z,29.36
2022-08-14T11:15:52.567Z,29.67
2022-08-14T11:18:30.122Z,30.27
2022-08-14T11:21:02.520Z,29.46
2022-08-14T11:23:38.361Z,29.55
2022-08-14T11:26:08.431Z,29.98
2022-08-14T11:28:46.356Z,29.26
2022-08-14T11:31:23.688Z,28.79
2022-08-14T11:33:58.241Z,28.75
2022-08-14T11:37:02.834Z,28.59
2022-08-14T11:39:33.608Z,28.89
2022-08-14T11:42:57.018Z,29.22
2022-08-14T11:45:04.176Z,29.63
2022-08-14T11:47:34.894Z,29.98
2022-08-14T11:50:34.168Z,30.35
2022-08-14T11:53:05.155Z,30.62
2022-08-14T11:55:38.117Z,30.49
2022-08-14T11:58:11.034Z,30.03
2022-08-14T12:00:53.819Z,29.85
2022-08-14T12:03:37.840Z,29.72
2022-08-14T12:06:29.619Z,29.69
2022-08-14T12:09:00.133Z,29.30
2022-08-14T12:11:43.345Z,29.77
2022-08-14T12:14:30.252Z,30.07
2022-08-14T12:17:01.921Z,30.18
2022-08-14T12:19:33.776Z,30.09
2022-08-14T12:22:02.674Z,30.18
2022-08-14T12:24:35.958Z,30.58
2022-08-14T12:27:03.852Z,30.30
2022-08-14T12:29:31.869Z,30.47
2022-08-14T12:32:08.760Z,30.70
2022-08-14T12:34:37.301Z,30.24
2022-08-14T12:37:06.169Z,30.23
2022-08-14T12:39:40.158Z,30.85
2022-08-14T12:42:08.033Z,31.17
2022-08-14T12:44:38.158Z,31.78
2022-08-14T12:47:13.425Z,31.88
2022-08-14T12:49:57.853Z,31.62
2022-08-14T12:52:56.210Z,31.97
2022-08-14T12:56:17.703Z,32.00
2022-08-14T12:58:49.902Z,31.53
2022-08-14T13:01:23.704Z,31.64
2022-08-14T13:03:51.959Z,31.67
2022-08-14T13:06:20.507Z,31.81
2022-08-14T13:08:52.908Z,31.35
2022-08-14T13:11:23.969Z,30.66
2022-08-14T13:13:59.424Z,31.29
2022-08-14T13:16:37.635Z,31.40
2022-08-14T13:19:11.072Z,30.82
2022-08-14T13:21:58.848Z,30.56
2022-08-14T13:24:34.591Z,30.92
2022-08-14T13:27:04.355Z,31.07
2022-08-14T13:29:39.630Z,31.21
2022-08-14T13:32:09.489Z,31.55
2022-08-14T13:34:37.498Z,31.55
2022-08-14T13:37:07.273Z,31.59
2022-08-14T13:39:36.126Z,31.88
2022-08-14T13:42:13.426Z,31.65
2022-08-14T13:44:43.197Z,31.15
2022-08-14T13:47:14.771Z,30.89
2022-08-14T13:49:57.547Z,30.62
2022-08-14T13:52:52.450Z,30.56
2022-08-14T13:55:18.051Z,30.49
2022-08-14T13:57:49.732Z,30.23
2022-08-14T14:00:53.126Z,30.22
2022-08-14T14:03:23.661Z,30.59
2022-08-14T14:05:54.376Z,31.13
2022-08-14T14:08:43.397Z,31.11
2022-08-14T14:11:11.147Z,30.85
2022-08-14T14:13:42.079Z,30.67
2022-08-14T14:16:15.325Z,30.90
2022-08-14T14:18:56.057Z,30.83
2022-08-14T14:21:28.728Z,30.96
2022-08-14T14:23:56.942Z,30.85
2022-08-14T14:26:24.708Z,30.67
2022-08-14T14:28:56.603Z,30.93
2022-08-14T14:31:29.719Z,30.79
2022-08-14T14:34:07.623Z,30.43
2022-08-14T14:36:52.548Z,30.17
2022-08-14T14:39:28.764Z,30.11
2022-08-14T14:41:59.612Z,30.28
2022-08-14T14:44:34.584Z,30.33
2022-08-14T14:47:01.759Z,30.65
2022-08-14T14:49:42.103Z,30.80
2022-08-14T14:52:26.544Z,30.41
2022-08-14T14:54:57.147Z,30.41
2022-08-14T14:57:35.555Z,30.31
2022-08-14T15:00:19.339Z,30.23
2022-08-14T15:02:52.677Z,30.37
2022-08-14T15:05:24.709Z,30.40
2022-08-14T15:07:55.637Z,30.46
2022-08-14T15:10:27.054Z,30.38
2022-08-14T15:13:03.837Z,29.96
2022-08-14T15:15:32.602Z,29.63
2022-08-14T15:17:59.478Z,29.66
2022-08-14T15:20:29.754Z,29.81
2022-08-14T15:23:00.903Z,29.79
2022-08-14T15:25:35.491Z,29.80
2022-08-14T15:28:02.205Z,29.82
2022-08-14T15:30:32.686Z,29.90
2022-08-14T15:32:59.804Z,29.87
2022-08-14T15:35:29.554Z,29.78
2022-08-14T15:38:10.182Z,29.76
2022-08-14T15:40:41.646Z,29.71
2022-08-14T15:43:13.191Z,29.50
2022-08-14T15:45:40.900Z,29.34
2022-08-14T15:48:13.952Z,29.22
2022-08-14T15:50:49.246Z,29.01
2022-08-14T15:53:17.656Z,28.92
2022-08-14T15:55:44.577Z,28.75
2022-08-14T15:58:14.488Z,28.66
2022-08-14T16:00:59.850Z,28.58
2022-08-14T16:03:35.357Z,28.55
2022-08-14T16:06:06.236Z,28.48
2022-08-14T16:08:38.896Z,28.37
2022-08-14T16:11:08.292Z,28.39
2022-08-14T16:13:39.431Z,28.46
2022-08-14T16:16:34.802Z,28.47
2022-08-14T16:19:09.533Z,28.38
2022-08-14T16:21:40.106Z,28.34
2022-08-14T16:24:27.626Z,28.40
2022-08-14T16:27:01.002Z,28.54
2022-08-14T16:29:30.495Z,28.59
2022-08-14T16:32:00.280Z,28.56
2022-08-14T16:34:46.757Z,28.47
2022-08-14T16:37:17.179Z,28.37
2022-08-14T16:39:46.402Z,28.30
2022-08-14T16:42:39.269Z,28.26
2022-08-14T16:45:02.704Z,28.25
2022-08-14T16:47:34.966Z,28.22
2022-08-14T16:50:08.930Z,28.07
2022-08-14T16:52:44.719Z,28.06
2022-08-14T16:55:21.547Z,28.01
2022-08-14T16:57:54.740Z,27.98
2022-08-14T17:00:43.834Z,27.93
2022-08-14T17:03:12.832Z,27.86
2022-08-14T17:05:43.122Z,27.81
2022-08-14T17:08:32.936Z,27.79
2022-08-14T17:11:01.705Z,27.75
2022-08-14T17:13:59.818Z,27.67
2022-08-14T17:16:24.755Z,27.58
2022-08-14T17:19:01.290Z,27.50
2022-08-14T17:21:41.042Z,27.43
2022-08-14T17:24:56.450Z,27.40
2022-08-14T17:27:00.030Z,27.36
2022-08-14T17:29:44.539Z,27.28
2022-08-14T17:32:29.877Z,27.20
2022-08-14T17:35:10.334Z,27.14
2022-08-14T17:37:44.968Z,27.10
2022-08-14T17:40:15.055Z,27.06
2022-08-14T17:42:51.002Z,27.00
2022-08-14T17:45:26.990Z,26.93
2022-08-14T17:47:59.047Z,26.88
2022-08-14T17:51:00.202Z,26.71
2022-08-14T17:53:27.720Z,26.56
2022-08-14T17:56:02.604Z,26.46
2022-08-14T17:58:38.639Z,26.38
2022-08-14T18:01:13.367Z,26.41
2022-08-14T18:03:50.454Z,26.39
2022-08-14T18:06:39.673Z,26.29
2022-08-14T18:09:24.982Z,26.27
2022-08-14T18:11:58.161Z,26.19
2022-08-14T18:14:32.809Z,26.20
2022-08-14T18:17:16.058Z,26.10
2022-08-14T18:19:45.015Z,26.02
2022-08-14T18:22:24.018Z,25.97
2022-08-14T18:24:59.360Z,25.78
2022-08-14T18:27:42.062Z,25.67
2022-08-14T18:30:33.298Z,25.40
2022-08-14T18:32:59.152Z,25.13
2022-08-14T18:35:59.308Z,24.92
2022-08-14T18:38:45.652Z,24.69
2022-08-14T18:41:37.203Z,24.43
2022-08-14T18:44:10.786Z,24.11
2022-08-14T18:47:10.056Z,23.94
2022-08-14T18:49:55.212Z,23.81
2022-08-14T18:52:40.332Z,23.67
2022-08-14T18:55:16.578Z,23.63
2022-08-14T18:58:20.784Z,23.53
2022-08-14T19:00:58.733Z,23.40
2022-08-14T19:03:36.789Z,23.21
2022-08-14T19:06:09.102Z,23.08
2022-08-14T19:08:47.689Z,23.04
2022-08-14T19:11:34.236Z,23.04
2022-08-14T19:14:05.077Z,23.00
2022-08-14T19:17:16.306Z,22.97
2022-08-14T19:20:10.810Z,22.85
2022-08-14T19:22:56.424Z,22.81
2022-08-14T19:25:49.256Z,22.92
2022-08-14T19:29:52.798Z,22.97
2022-08-14T19:40:46.323Z,23.06
2022-08-14T19:43:55.643Z,23.20
2022-08-14T19:46:37.599Z,23.31
2022-08-14T19:57:08.548Z,23.37
2022-08-14T20:00:52.426Z,23.12
2022-08-14T20:04:46.472Z,22.78
2022-08-14T20:16:12.133Z,22.28
2022-08-14T20:19:12.447Z,22.32
2022-08-14T20:22:36.426Z,22.29
2022-08-14T20:25:08.378Z,22.36
2022-08-14T20:31:20.122Z,22.15
2022-08-14T20:34:24.649Z,21.93
2022-08-14T20:37:12.538Z,21.78
2022-08-14T20:39:54.737Z,21.65
2022-08-14T20:43:35.396Z,21.62
2022-08-14T20:55:13.159Z,21.73
2022-08-14T21:02:28.519Z,21.94
2022-08-14T21:17:43.066Z,22.32
2022-08-14T21:20:26.192Z,22.35
2022-08-14T21:23:07.496Z,22.20
2022-08-14T21:25:39.157Z,22.13
2022-08-14T21:28:29.816Z,22.04
2022-08-14T21:30:59.906Z,22.04
2022-08-14T21:33:32.869Z,22.05
2022-08-14T21:39:25.062Z,22.08
2022-08-14T21:46:30.998Z,21.93
2022-08-14T21:49:00.434Z,21.91
2022-08-14T21:59:24.423Z,21.92
2022-08-14T22:02:00.035Z,21.88
2022-08-14T22:04:51.987Z,21.88
2022-08-14T22:11:09.609Z,21.83
2022-08-14T22:13:46.771Z,21.85
2022-08-14T22:17:01.516Z,21.81
2022-08-14T22:19:57.035Z,21.81
2022-08-14T22:22:56.249Z,21.73
2022-08-14T22:29:02.140Z,21.58
2022-08-14T22:32:57.029Z,21.65
2022-08-14T22:36:42.399Z,21.69
2022-08-14T23:00:45.098Z,21.96
2022-08-14T23:03:19.449Z,21.94
2022-08-14T23:06:00.539Z,21.92
2022-08-14T23:08:58.657Z,21.90
2022-08-14T23:11:31.138Z,21.87
2022-08-14T23:14:02.296Z,21.86
2022-08-14T23:17:39.361Z,21.92
2022-08-14T23:21:31.485Z,21.86
2022-08-14T23:33:11.887Z,21.78
2022-08-14T23:36:54.365Z,21.75
2022-08-14T23:41:46.519Z,21.74
2022-08-14T23:43:38.633Z,21.75
2022-08-14T23:53:48.134Z,21.79
2022-08-14T23:56:31.865Z,21.74
2022-08-14T23:59:25.619Z,21.73
